Terminal Aerodrome Forecast
Issued by NWS

Home | Current Version | Previous Version | Text Only | Print | Product List | Glossary On
Versions: 1 2 3 4 5 6 7 8 9 10 11 12 13 14 15 16 17 18
000
FTUS43 KAPX 092336
TAFPLN
TAF
KPLN 092336Z 1000/1024 VRB03KT 2SM -SHSN OVC028
      TEMPO 1000/1004 1/2SM SHSN OVC012
     FM100700 28004KT 3SM -SHSN OVC025
     FM101200 28005KT 5SM -SHSN OVC035
     FM101800 28009KT P6SM OVC025=

USA.gov is the U.S. government's official web portal to all federal, state and local government web resources and services.